sensor_id;sensor_type;location;lat;lon;timestamp;temperature;humidity
25112;DHT22;13092;51.996;4.458;2022-12-11T00:01:39;4.10;99.90
25112;DHT22;13092;51.996;4.458;2022-12-11T00:04:08;4.00;99.90
25112;DHT22;13092;51.996;4.458;2022-12-11T00:06:37;4.20;99.90
25112;DHT22;13092;51.996;4.458;2022-12-11T00:09:05;3.90;99.90
25112;DHT22;13092;51.996;4.458;2022-12-11T00:11:33;4.10;99.90
25112;DHT22;13092;51.996;4.458;2022-12-11T00:14:02;4.10;99.90
25112;DHT22;13092;51.996;4.458;2022-12-11T00:16:30;4.10;99.90
25112;DHT22;13092;51.996;4.458;2022-12-11T00:18:58;4.10;99.90
25112;DHT22;13092;51.996;4.458;2022-12-11T00:21:26;4.10;99.90
25112;DHT22;13092;51.996;4.458;2022-12-11T00:23:56;4.10;99.90
25112;DHT22;13092;51.996;4.458;2022-12-11T00:26:24;4.10;99.90
25112;DHT22;13092;51.996;4.458;2022-12-11T00:28:53;4.10;99.90
25112;DHT22;13092;51.996;4.458;2022-12-11T00:31:23;4.00;99.90
25112;DHT22;13092;51.996;4.458;2022-12-11T00:33:51;4.10;99.90
25112;DHT22;13092;51.996;4.458;2022-12-11T00:36:21;4.10;99.90
25112;DHT22;13092;51.996;4.458;2022-12-11T00:38:50;4.10;99.90
25112;DHT22;13092;51.996;4.458;2022-12-11T00:41:20;4.10;99.90
25112;DHT22;13092;51.996;4.458;2022-12-11T00:43:48;4.00;99.90
25112;DHT22;13092;51.996;4.458;2022-12-11T00:46:16;4.10;99.90
25112;DHT22;13092;51.996;4.458;2022-12-11T00:48:45;4.00;99.90
25112;DHT22;13092;51.996;4.458;2022-12-11T00:51:18;4.00;99.90
25112;DHT22;13092;51.996;4.458;2022-12-11T00:53:46;3.90;99.90
25112;DHT22;13092;51.996;4.458;2022-12-11T00:56:16;3.90;99.90
25112;DHT22;13092;51.996;4.458;2022-12-11T00:58:47;4.00;99.90
25112;DHT22;13092;51.996;4.458;2022-12-11T01:01:16;4.00;99.90
25112;DHT22;13092;51.996;4.458;2022-12-11T01:03:45;4.00;99.90
25112;DHT22;13092;51.996;4.458;2022-12-11T01:06:16;4.00;99.90
25112;DHT22;13092;51.996;4.458;2022-12-11T01:08:45;4.10;99.90
25112;DHT22;13092;51.996;4.458;2022-12-11T01:11:15;4.10;99.90
25112;DHT22;13092;51.996;4.458;2022-12-11T01:13:42;4.10;99.90
25112;DHT22;13092;51.996;4.458;2022-12-11T01:16:14;4.10;99.90
25112;DHT22;13092;51.996;4.458;2022-12-11T01:18:45;4.20;99.90
25112;DHT22;13092;51.996;4.458;2022-12-11T01:21:13;4.00;99.90
25112;DHT22;13092;51.996;4.458;2022-12-11T01:23:42;4.00;99.90
25112;DHT22;13092;51.996;4.458;2022-12-11T01:26:13;4.00;99.90
25112;DHT22;13092;51.996;4.458;2022-12-11T01:28:42;4.00;99.90
25112;DHT22;13092;51.996;4.458;2022-12-11T01:31:13;4.00;99.90
25112;DHT22;13092;51.996;4.458;2022-12-11T01:33:45;4.00;99.90
25112;DHT22;13092;51.996;4.458;2022-12-11T01:36:15;4.00;99.90
25112;DHT22;13092;51.996;4.458;2022-12-11T01:38:44;4.00;99.90
25112;DHT22;13092;51.996;4.458;2022-12-11T01:41:13;4.00;99.90
25112;DHT22;13092;51.996;4.458;2022-12-11T01:44:03;4.00;99.90
25112;DHT22;13092;51.996;4.458;2022-12-11T01:46:35;3.90;99.90
25112;DHT22;13092;51.996;4.458;2022-12-11T01:49:06;3.90;99.90
25112;DHT22;13092;51.996;4.458;2022-12-11T01:51:39;3.80;99.90
25112;DHT22;13092;51.996;4.458;2022-12-11T01:54:11;3.80;99.90
25112;DHT22;13092;51.996;4.458;2022-12-11T01:56:41;3.80;99.90
25112;DHT22;13092;51.996;4.458;2022-12-11T01:59:10;3.80;99.90
25112;DHT22;13092;51.996;4.458;2022-12-11T02:01:44;3.80;99.90
25112;DHT22;13092;51.996;4.458;2022-12-11T02:04:19;3.80;99.90
25112;DHT22;13092;51.996;4.458;2022-12-11T02:06:49;3.80;99.90
25112;DHT22;13092;51.996;4.458;2022-12-11T02:09:20;3.80;99.90
25112;DHT22;13092;51.996;4.458;2022-12-11T02:11:54;3.80;99.90
25112;DHT22;13092;51.996;4.458;2022-12-11T02:14:29;3.80;99.90
25112;DHT22;13092;51.996;4.458;2022-12-11T02:17:05;3.90;99.90
25112;DHT22;13092;51.996;4.458;2022-12-11T02:19:45;3.90;99.90
25112;DHT22;13092;51.996;4.458;2022-12-11T02:22:21;4.00;99.90
25112;DHT22;13092;51.996;4.458;2022-12-11T02:25:04;3.90;99.90
25112;DHT22;13092;51.996;4.458;2022-12-11T02:27:41;4.10;99.90
25112;DHT22;13092;51.996;4.458;2022-12-11T02:30:19;4.20;99.90
25112;DHT22;13092;51.996;4.458;2022-12-11T02:32:53;3.90;99.90
25112;DHT22;13092;51.996;4.458;2022-12-11T02:35:27;3.90;99.90
25112;DHT22;13092;51.996;4.458;2022-12-11T02:38:00;3.90;99.90
25112;DHT22;13092;51.996;4.458;2022-12-11T02:40:35;3.80;99.90
25112;DHT22;13092;51.996;4.458;2022-12-11T02:43:06;3.90;99.90
25112;DHT22;13092;51.996;4.458;2022-12-11T02:45:38;3.90;99.90
25112;DHT22;13092;51.996;4.458;2022-12-11T02:48:08;3.90;99.90
25112;DHT22;13092;51.996;4.458;2022-12-11T02:50:41;3.90;99.90
25112;DHT22;13092;51.996;4.458;2022-12-11T02:53:12;3.90;99.90
25112;DHT22;13092;51.996;4.458;2022-12-11T02:55:44;3.90;99.90
25112;DHT22;13092;51.996;4.458;2022-12-11T02:58:18;3.90;99.90
25112;DHT22;13092;51.996;4.458;2022-12-11T03:00:50;3.90;99.90
25112;DHT22;13092;51.996;4.458;2022-12-11T03:03:18;3.80;99.90
25112;DHT22;13092;51.996;4.458;2022-12-11T03:05:46;3.90;99.90
25112;DHT22;13092;51.996;4.458;2022-12-11T03:08:15;4.00;99.90
25112;DHT22;13092;51.996;4.458;2022-12-11T03:10:44;3.90;99.90
25112;DHT22;13092;51.996;4.458;2022-12-11T03:13:17;3.90;99.90
25112;DHT22;13092;51.996;4.458;2022-12-11T03:15:59;3.90;99.90
25112;DHT22;13092;51.996;4.458;2022-12-11T03:18:38;3.90;99.90
25112;DHT22;13092;51.996;4.458;2022-12-11T03:21:10;3.90;99.90
25112;DHT22;13092;51.996;4.458;2022-12-11T03:23:47;3.80;99.90
25112;DHT22;13092;51.996;4.458;2022-12-11T03:26:18;3.80;99.90
25112;DHT22;13092;51.996;4.458;2022-12-11T03:28:54;3.80;99.90
25112;DHT22;13092;51.996;4.458;2022-12-11T03:31:30;3.80;99.90
25112;DHT22;13092;51.996;4.458;2022-12-11T03:34:07;3.80;99.90
25112;DHT22;13092;51.996;4.458;2022-12-11T03:36:38;3.80;99.90
25112;DHT22;13092;51.996;4.458;2022-12-11T03:39:09;4.00;99.90
25112;DHT22;13092;51.996;4.458;2022-12-11T03:41:41;3.80;99.90
25112;DHT22;13092;51.996;4.458;2022-12-11T03:44:19;3.80;99.90
25112;DHT22;13092;51.996;4.458;2022-12-11T03:46:52;3.80;99.90
25112;DHT22;13092;51.996;4.458;2022-12-11T03:49:25;3.80;99.90
25112;DHT22;13092;51.996;4.458;2022-12-11T03:51:58;3.80;99.90
25112;DHT22;13092;51.996;4.458;2022-12-11T03:54:28;3.80;99.90
25112;DHT22;13092;51.996;4.458;2022-12-11T03:57:01;3.80;99.90
25112;DHT22;13092;51.996;4.458;2022-12-11T03:59:30;3.80;99.90
25112;DHT22;13092;51.996;4.458;2022-12-11T04:02:03;3.80;99.90
25112;DHT22;13092;51.996;4.458;2022-12-11T04:04:37;3.80;99.90
25112;DHT22;13092;51.996;4.458;2022-12-11T04:07:06;4.00;99.90
25112;DHT22;13092;51.996;4.458;2022-12-11T04:09:34;3.80;99.90
25112;DHT22;13092;51.996;4.458;2022-12-11T04:12:11;3.80;99.90
25112;DHT22;13092;51.996;4.458;2022-12-11T04:14:39;3.90;99.90
25112;DHT22;13092;51.996;4.458;2022-12-11T04:17:26;3.90;99.90
25112;DHT22;13092;51.996;4.458;2022-12-11T04:20:12;3.90;99.90
25112;DHT22;13092;51.996;4.458;2022-12-11T04:22:57;4.00;99.90
25112;DHT22;13092;51.996;4.458;2022-12-11T04:25:43;4.00;99.90
25112;DHT22;13092;51.996;4.458;2022-12-11T04:28:11;3.90;99.90
25112;DHT22;13092;51.996;4.458;2022-12-11T04:30:39;3.90;99.90
25112;DHT22;13092;51.996;4.458;2022-12-11T04:33:09;4.00;99.90
25112;DHT22;13092;51.996;4.458;2022-12-11T04:35:39;3.90;99.90
25112;DHT22;13092;51.996;4.458;2022-12-11T04:38:07;4.10;99.90
25112;DHT22;13092;51.996;4.458;2022-12-11T04:40:35;3.90;99.90
25112;DHT22;13092;51.996;4.458;2022-12-11T04:43:03;3.90;99.90
25112;DHT22;13092;51.996;4.458;2022-12-11T04:45:32;3.90;99.90
25112;DHT22;13092;51.996;4.458;2022-12-11T04:48:01;4.00;99.90
25112;DHT22;13092;51.996;4.458;2022-12-11T04:50:30;3.80;99.90
25112;DHT22;13092;51.996;4.458;2022-12-11T04:52:58;3.80;99.90
25112;DHT22;13092;51.996;4.458;2022-12-11T04:55:27;3.80;99.90
25112;DHT22;13092;51.996;4.458;2022-12-11T04:57:57;3.80;99.90
25112;DHT22;13092;51.996;4.458;2022-12-11T05:00:25;3.80;99.90
25112;DHT22;13092;51.996;4.458;2022-12-11T05:02:54;3.80;99.90
25112;DHT22;13092;51.996;4.458;2022-12-11T05:05:22;3.70;99.90
25112;DHT22;13092;51.996;4.458;2022-12-11T05:07:52;3.70;99.90
25112;DHT22;13092;51.996;4.458;2022-12-11T05:10:20;3.60;99.90
25112;DHT22;13092;51.996;4.458;2022-12-11T05:12:48;3.80;99.90
25112;DHT22;13092;51.996;4.458;2022-12-11T05:15:17;3.70;99.90
25112;DHT22;13092;51.996;4.458;2022-12-11T05:17:45;3.70;99.90
25112;DHT22;13092;51.996;4.458;2022-12-11T05:20:13;3.70;99.90
25112;DHT22;13092;51.996;4.458;2022-12-11T05:22:43;3.70;99.90
25112;DHT22;13092;51.996;4.458;2022-12-11T05:25:13;3.70;99.90
25112;DHT22;13092;51.996;4.458;2022-12-11T05:27:43;3.70;99.90
25112;DHT22;13092;51.996;4.458;2022-12-11T05:30:13;3.70;99.90
25112;DHT22;13092;51.996;4.458;2022-12-11T05:32:42;3.80;99.90
25112;DHT22;13092;51.996;4.458;2022-12-11T05:35:10;3.80;99.90
25112;DHT22;13092;51.996;4.458;2022-12-11T05:37:41;3.70;99.90
25112;DHT22;13092;51.996;4.458;2022-12-11T05:40:10;3.70;99.90
25112;DHT22;13092;51.996;4.458;2022-12-11T05:42:40;3.70;99.90
25112;DHT22;13092;51.996;4.458;2022-12-11T05:45:09;3.70;99.90
25112;DHT22;13092;51.996;4.458;2022-12-11T05:47:38;3.70;99.90
25112;DHT22;13092;51.996;4.458;2022-12-11T05:50:06;3.50;99.90
25112;DHT22;13092;51.996;4.458;2022-12-11T05:52:35;3.70;99.90
25112;DHT22;13092;51.996;4.458;2022-12-11T05:55:03;3.70;99.90
25112;DHT22;13092;51.996;4.458;2022-12-11T05:57:31;3.70;99.90
25112;DHT22;13092;51.996;4.458;2022-12-11T06:00:01;3.70;99.90
25112;DHT22;13092;51.996;4.458;2022-12-11T06:02:29;3.80;99.90
25112;DHT22;13092;51.996;4.458;2022-12-11T06:04:57;3.70;99.90
25112;DHT22;13092;51.996;4.458;2022-12-11T06:07:25;3.70;99.90
25112;DHT22;13092;51.996;4.458;2022-12-11T06:09:53;3.80;99.90
25112;DHT22;13092;51.996;4.458;2022-12-11T06:12:23;3.80;99.90
25112;DHT22;13092;51.996;4.458;2022-12-11T06:14:51;3.80;99.90
25112;DHT22;13092;51.996;4.458;2022-12-11T06:17:24;3.80;99.90
25112;DHT22;13092;51.996;4.458;2022-12-11T06:19:54;3.70;99.90
25112;DHT22;13092;51.996;4.458;2022-12-11T06:22:22;3.80;99.90
25112;DHT22;13092;51.996;4.458;2022-12-11T06:24:50;3.80;99.90
25112;DHT22;13092;51.996;4.458;2022-12-11T06:27:18;3.80;99.90
25112;DHT22;13092;51.996;4.458;2022-12-11T06:29:46;3.80;99.90
25112;DHT22;13092;51.996;4.458;2022-12-11T06:32:14;3.80;99.90
25112;DHT22;13092;51.996;4.458;2022-12-11T06:34:44;3.80;99.90
25112;DHT22;13092;51.996;4.458;2022-12-11T06:37:12;3.80;99.90
25112;DHT22;13092;51.996;4.458;2022-12-11T06:39:40;3.80;99.90
25112;DHT22;13092;51.996;4.458;2022-12-11T06:42:08;4.00;99.90
25112;DHT22;13092;51.996;4.458;2022-12-11T06:44:36;3.90;99.90
25112;DHT22;13092;51.996;4.458;2022-12-11T06:47:04;3.90;99.90
25112;DHT22;13092;51.996;4.458;2022-12-11T06:49:35;4.10;99.90
25112;DHT22;13092;51.996;4.458;2022-12-11T06:52:09;3.90;99.90
25112;DHT22;13092;51.996;4.458;2022-12-11T06:54:43;3.90;99.90
25112;DHT22;13092;51.996;4.458;2022-12-11T06:57:12;3.80;99.90
25112;DHT22;13092;51.996;4.458;2022-12-11T06:59:40;3.80;99.90
25112;DHT22;13092;51.996;4.458;2022-12-11T07:02:10;3.80;99.90
25112;DHT22;13092;51.996;4.458;2022-12-11T07:04:41;3.70;99.90
25112;DHT22;13092;51.996;4.458;2022-12-11T07:07:11;3.70;99.90
25112;DHT22;13092;51.996;4.458;2022-12-11T07:09:40;3.70;99.90
25112;DHT22;13092;51.996;4.458;2022-12-11T07:12:08;3.70;99.90
25112;DHT22;13092;51.996;4.458;2022-12-11T07:14:37;3.60;99.90
25112;DHT22;13092;51.996;4.458;2022-12-11T07:17:05;3.60;99.90
25112;DHT22;13092;51.996;4.458;2022-12-11T07:19:33;3.70;99.90
25112;DHT22;13092;51.996;4.458;2022-12-11T07:22:03;3.70;99.90
25112;DHT22;13092;51.996;4.458;2022-12-11T07:24:32;3.70;99.90
25112;DHT22;13092;51.996;4.458;2022-12-11T07:27:03;3.70;99.90
25112;DHT22;13092;51.996;4.458;2022-12-11T07:29:37;3.70;99.90
25112;DHT22;13092;51.996;4.458;2022-12-11T07:32:05;3.70;99.90
25112;DHT22;13092;51.996;4.458;2022-12-11T07:34:34;3.70;99.90
25112;DHT22;13092;51.996;4.458;2022-12-11T07:37:02;3.70;99.90
25112;DHT22;13092;51.996;4.458;2022-12-11T07:39:31;3.70;99.90
25112;DHT22;13092;51.996;4.458;2022-12-11T07:41:59;3.70;99.90
25112;DHT22;13092;51.996;4.458;2022-12-11T07:44:30;3.70;99.90
25112;DHT22;13092;51.996;4.458;2022-12-11T07:46:58;3.70;99.90
25112;DHT22;13092;51.996;4.458;2022-12-11T07:49:27;3.70;99.90
25112;DHT22;13092;51.996;4.458;2022-12-11T07:51:58;3.70;99.90
25112;DHT22;13092;51.996;4.458;2022-12-11T07:54:29;3.70;99.90
25112;DHT22;13092;51.996;4.458;2022-12-11T07:57:01;3.70;99.90
25112;DHT22;13092;51.996;4.458;2022-12-11T07:59:29;3.60;99.90
25112;DHT22;13092;51.996;4.458;2022-12-11T08:01:57;3.70;99.90
25112;DHT22;13092;51.996;4.458;2022-12-11T08:04:25;3.80;99.90
25112;DHT22;13092;51.996;4.458;2022-12-11T08:06:54;3.70;99.90
25112;DHT22;13092;51.996;4.458;2022-12-11T08:09:24;3.60;99.90
25112;DHT22;13092;51.996;4.458;2022-12-11T08:11:52;3.70;99.90
25112;DHT22;13092;51.996;4.458;2022-12-11T08:14:21;3.70;99.90
25112;DHT22;13092;51.996;4.458;2022-12-11T08:16:50;4.00;99.90
25112;DHT22;13092;51.996;4.458;2022-12-11T08:19:18;3.80;99.90
25112;DHT22;13092;51.996;4.458;2022-12-11T08:21:47;3.90;99.90
25112;DHT22;13092;51.996;4.458;2022-12-11T08:24:15;3.90;99.90
25112;DHT22;13092;51.996;4.458;2022-12-11T08:26:46;4.00;99.90
25112;DHT22;13092;51.996;4.458;2022-12-11T08:29:15;3.90;99.90
25112;DHT22;13092;51.996;4.458;2022-12-11T08:31:44;3.90;99.90
25112;DHT22;13092;51.996;4.458;2022-12-11T08:34:13;3.90;99.90
25112;DHT22;13092;51.996;4.458;2022-12-11T08:36:41;3.90;99.90
25112;DHT22;13092;51.996;4.458;2022-12-11T08:39:10;3.90;99.90
25112;DHT22;13092;51.996;4.458;2022-12-11T08:41:40;3.90;99.90
25112;DHT22;13092;51.996;4.458;2022-12-11T08:44:10;3.90;99.90
25112;DHT22;13092;51.996;4.458;2022-12-11T08:46:44;4.00;99.90
25112;DHT22;13092;51.996;4.458;2022-12-11T08:49:12;4.00;99.90
25112;DHT22;13092;51.996;4.458;2022-12-11T08:51:40;4.00;99.90
25112;DHT22;13092;51.996;4.458;2022-12-11T08:54:09;4.00;99.90
25112;DHT22;13092;51.996;4.458;2022-12-11T08:56:38;3.80;99.90
25112;DHT22;13092;51.996;4.458;2022-12-11T08:59:07;4.00;99.90
25112;DHT22;13092;51.996;4.458;2022-12-11T09:01:35;3.90;99.90
25112;DHT22;13092;51.996;4.458;2022-12-11T09:04:04;3.90;99.90
25112;DHT22;13092;51.996;4.458;2022-12-11T09:06:33;4.00;99.90
25112;DHT22;13092;51.996;4.458;2022-12-11T09:09:01;3.90;99.90
25112;DHT22;13092;51.996;4.458;2022-12-11T09:11:31;4.10;99.90
25112;DHT22;13092;51.996;4.458;2022-12-11T09:14:00;4.00;99.90
25112;DHT22;13092;51.996;4.458;2022-12-11T09:16:34;4.00;99.90
25112;DHT22;13092;51.996;4.458;2022-12-11T09:19:10;4.00;99.90
25112;DHT22;13092;51.996;4.458;2022-12-11T09:21:40;4.00;99.90
25112;DHT22;13092;51.996;4.458;2022-12-11T09:24:10;4.00;99.90
25112;DHT22;13092;51.996;4.458;2022-12-11T09:26:38;4.00;99.90
25112;DHT22;13092;51.996;4.458;2022-12-11T09:29:07;3.90;99.90
25112;DHT22;13092;51.996;4.458;2022-12-11T09:31:36;4.10;99.90
25112;DHT22;13092;51.996;4.458;2022-12-11T09:34:07;4.10;99.90
25112;DHT22;13092;51.996;4.458;2022-12-11T09:36:37;4.10;99.90
25112;DHT22;13092;51.996;4.458;2022-12-11T09:39:07;4.10;99.90
25112;DHT22;13092;51.996;4.458;2022-12-11T09:41:37;4.20;99.90
25112;DHT22;13092;51.996;4.458;2022-12-11T09:44:17;4.30;99.90
25112;DHT22;13092;51.996;4.458;2022-12-11T09:46:47;4.20;99.90
25112;DHT22;13092;51.996;4.458;2022-12-11T09:49:33;4.20;99.90
25112;DHT22;13092;51.996;4.458;2022-12-11T09:52:08;4.20;99.90
25112;DHT22;13092;51.996;4.458;2022-12-11T09:54:42;4.20;99.90
25112;DHT22;13092;51.996;4.458;2022-12-11T09:57:30;4.40;99.90
25112;DHT22;13092;51.996;4.458;2022-12-11T10:00:19;4.30;99.90
25112;DHT22;13092;51.996;4.458;2022-12-11T10:03:03;4.40;99.90
25112;DHT22;13092;51.996;4.458;2022-12-11T10:05:41;4.40;99.90
25112;DHT22;13092;51.996;4.458;2022-12-11T10:08:21;4.30;99.90
25112;DHT22;13092;51.996;4.458;2022-12-11T10:10:54;4.40;99.90
25112;DHT22;13092;51.996;4.458;2022-12-11T10:13:31;4.30;99.90
25112;DHT22;13092;51.996;4.458;2022-12-11T10:16:07;4.30;99.90
25112;DHT22;13092;51.996;4.458;2022-12-11T10:18:39;4.40;99.90
25112;DHT22;13092;51.996;4.458;2022-12-11T10:21:10;4.40;99.90
25112;DHT22;13092;51.996;4.458;2022-12-11T10:23:43;4.40;99.90
25112;DHT22;13092;51.996;4.458;2022-12-11T10:26:16;4.40;99.90
25112;DHT22;13092;51.996;4.458;2022-12-11T10:28:45;4.40;99.90
25112;DHT22;13092;51.996;4.458;2022-12-11T10:31:16;4.40;99.90
25112;DHT22;13092;51.996;4.458;2022-12-11T10:33:53;4.40;99.90
25112;DHT22;13092;51.996;4.458;2022-12-11T10:36:28;4.60;99.90
25112;DHT22;13092;51.996;4.458;2022-12-11T10:38:58;4.50;99.90
25112;DHT22;13092;51.996;4.458;2022-12-11T10:41:35;4.50;99.90
25112;DHT22;13092;51.996;4.458;2022-12-11T10:44:14;4.60;99.90
25112;DHT22;13092;51.996;4.458;2022-12-11T10:46:44;4.70;99.90
25112;DHT22;13092;51.996;4.458;2022-12-11T10:49:27;4.60;99.90
25112;DHT22;13092;51.996;4.458;2022-12-11T10:52:01;4.60;99.90
25112;DHT22;13092;51.996;4.458;2022-12-11T10:54:38;4.70;99.90
25112;DHT22;13092;51.996;4.458;2022-12-11T10:57:09;4.80;99.90
25112;DHT22;13092;51.996;4.458;2022-12-11T10:59:45;4.70;99.90
25112;DHT22;13092;51.996;4.458;2022-12-11T11:02:20;4.70;99.90
25112;DHT22;13092;51.996;4.458;2022-12-11T11:04:52;4.70;99.90
25112;DHT22;13092;51.996;4.458;2022-12-11T11:07:26;4.90;99.90
25112;DHT22;13092;51.996;4.458;2022-12-11T11:10:14;4.70;99.90
25112;DHT22;13092;51.996;4.458;2022-12-11T11:12:45;4.80;99.90
25112;DHT22;13092;51.996;4.458;2022-12-11T11:15:16;4.80;99.90
25112;DHT22;13092;51.996;4.458;2022-12-11T11:17:49;4.80;99.90
25112;DHT22;13092;51.996;4.458;2022-12-11T11:20:23;4.80;99.90
25112;DHT22;13092;51.996;4.458;2022-12-11T11:22:59;4.80;99.90
25112;DHT22;13092;51.996;4.458;2022-12-11T11:25:29;4.80;99.90
25112;DHT22;13092;51.996;4.458;2022-12-11T11:28:03;4.90;99.90
25112;DHT22;13092;51.996;4.458;2022-12-11T11:30:37;4.90;99.90
25112;DHT22;13092;51.996;4.458;2022-12-11T11:33:14;4.90;99.90
25112;DHT22;13092;51.996;4.458;2022-12-11T11:35:51;5.00;99.90
25112;DHT22;13092;51.996;4.458;2022-12-11T11:38:24;4.90;99.90
25112;DHT22;13092;51.996;4.458;2022-12-11T11:40:56;4.90;99.90
25112;DHT22;13092;51.996;4.458;2022-12-11T11:43:39;4.80;99.90
25112;DHT22;13092;51.996;4.458;2022-12-11T11:46:13;5.00;99.90
25112;DHT22;13092;51.996;4.458;2022-12-11T11:48:53;4.80;99.90
25112;DHT22;13092;51.996;4.458;2022-12-11T11:51:32;4.80;99.90
25112;DHT22;13092;51.996;4.458;2022-12-11T11:54:21;4.80;99.90
25112;DHT22;13092;51.996;4.458;2022-12-11T11:56:55;4.80;99.90
25112;DHT22;13092;51.996;4.458;2022-12-11T11:59:27;4.80;99.90
25112;DHT22;13092;51.996;4.458;2022-12-11T12:01:58;4.70;99.90
25112;DHT22;13092;51.996;4.458;2022-12-11T12:04:34;4.90;99.90
25112;DHT22;13092;51.996;4.458;2022-12-11T12:07:15;5.00;99.90
25112;DHT22;13092;51.996;4.458;2022-12-11T12:09:52;4.90;99.90
25112;DHT22;13092;51.996;4.458;2022-12-11T12:12:34;5.00;99.90
25112;DHT22;13092;51.996;4.458;2022-12-11T12:15:19;5.00;99.90
25112;DHT22;13092;51.996;4.458;2022-12-11T12:17:51;4.90;99.90
25112;DHT22;13092;51.996;4.458;2022-12-11T12:20:36;4.90;99.90
25112;DHT22;13092;51.996;4.458;2022-12-11T12:23:22;4.80;99.90
25112;DHT22;13092;51.996;4.458;2022-12-11T12:26:08;4.90;99.90
25112;DHT22;13092;51.996;4.458;2022-12-11T12:28:45;4.80;99.90
25112;DHT22;13092;51.996;4.458;2022-12-11T12:31:29;4.80;99.90
25112;DHT22;13092;51.996;4.458;2022-12-11T12:34:04;4.70;99.90
25112;DHT22;13092;51.996;4.458;2022-12-11T12:36:41;4.80;99.90
25112;DHT22;13092;51.996;4.458;2022-12-11T12:39:23;4.80;99.90
25112;DHT22;13092;51.996;4.458;2022-12-11T12:42:03;4.80;99.90
25112;DHT22;13092;51.996;4.458;2022-12-11T12:44:39;4.80;99.90
25112;DHT22;13092;51.996;4.458;2022-12-11T12:47:12;4.80;99.90
25112;DHT22;13092;51.996;4.458;2022-12-11T12:49:44;4.70;99.90
25112;DHT22;13092;51.996;4.458;2022-12-11T12:52:16;4.70;99.90
25112;DHT22;13092;51.996;4.458;2022-12-11T12:54:47;4.80;99.90
25112;DHT22;13092;51.996;4.458;2022-12-11T12:57:34;4.70;99.90
25112;DHT22;13092;51.996;4.458;2022-12-11T13:00:04;4.70;99.90
25112;DHT22;13092;51.996;4.458;2022-12-11T13:02:47;4.70;99.90
25112;DHT22;13092;51.996;4.458;2022-12-11T13:05:21;4.80;99.90
25112;DHT22;13092;51.996;4.458;2022-12-11T13:07:52;4.70;99.90
25112;DHT22;13092;51.996;4.458;2022-12-11T13:10:27;4.60;99.90
25112;DHT22;13092;51.996;4.458;2022-12-11T13:12:59;4.80;99.90
25112;DHT22;13092;51.996;4.458;2022-12-11T13:15:39;4.80;99.90
25112;DHT22;13092;51.996;4.458;2022-12-11T13:18:32;4.70;99.90
25112;DHT22;13092;51.996;4.458;2022-12-11T13:21:01;4.70;99.90
25112;DHT22;13092;51.996;4.458;2022-12-11T13:23:31;4.60;99.90
25112;DHT22;13092;51.996;4.458;2022-12-11T13:26:02;4.70;99.90
25112;DHT22;13092;51.996;4.458;2022-12-11T13:28:44;4.70;99.90
25112;DHT22;13092;51.996;4.458;2022-12-11T13:31:29;4.70;99.90
25112;DHT22;13092;51.996;4.458;2022-12-11T13:34:07;4.60;99.90
25112;DHT22;13092;51.996;4.458;2022-12-11T13:36:45;4.60;99.90
25112;DHT22;13092;51.996;4.458;2022-12-11T13:39:16;4.70;99.90
25112;DHT22;13092;51.996;4.458;2022-12-11T13:41:47;4.70;99.90
25112;DHT22;13092;51.996;4.458;2022-12-11T13:44:21;4.70;99.90
25112;DHT22;13092;51.996;4.458;2022-12-11T13:46:52;4.60;99.90
25112;DHT22;13092;51.996;4.458;2022-12-11T13:49:24;4.60;99.90
25112;DHT22;13092;51.996;4.458;2022-12-11T13:51:56;4.60;99.90
25112;DHT22;13092;51.996;4.458;2022-12-11T13:54:25;4.60;99.90
25112;DHT22;13092;51.996;4.458;2022-12-11T13:56:56;4.50;99.90
25112;DHT22;13092;51.996;4.458;2022-12-11T13:59:32;4.50;99.90
25112;DHT22;13092;51.996;4.458;2022-12-11T14:02:12;4.50;99.90
25112;DHT22;13092;51.996;4.458;2022-12-11T14:04:42;4.60;99.90
25112;DHT22;13092;51.996;4.458;2022-12-11T14:07:10;4.60;99.90
25112;DHT22;13092;51.996;4.458;2022-12-11T14:09:42;4.50;99.90
25112;DHT22;13092;51.996;4.458;2022-12-11T14:12:15;4.50;99.90
25112;DHT22;13092;51.996;4.458;2022-12-11T14:14:48;4.60;99.90
25112;DHT22;13092;51.996;4.458;2022-12-11T14:17:23;4.50;99.90
25112;DHT22;13092;51.996;4.458;2022-12-11T14:19:53;4.50;99.90
25112;DHT22;13092;51.996;4.458;2022-12-11T14:22:24;4.50;99.90
25112;DHT22;13092;51.996;4.458;2022-12-11T14:24:55;4.50;99.90
25112;DHT22;13092;51.996;4.458;2022-12-11T14:27:25;4.50;99.90
25112;DHT22;13092;51.996;4.458;2022-12-11T14:29:55;4.70;99.90
25112;DHT22;13092;51.996;4.458;2022-12-11T14:32:34;4.60;99.90
25112;DHT22;13092;51.996;4.458;2022-12-11T14:35:05;4.50;99.90
25112;DHT22;13092;51.996;4.458;2022-12-11T14:37:35;4.50;99.90
25112;DHT22;13092;51.996;4.458;2022-12-11T14:40:13;4.50;99.90
25112;DHT22;13092;51.996;4.458;2022-12-11T14:42:45;4.50;99.90
25112;DHT22;13092;51.996;4.458;2022-12-11T14:45:19;4.40;99.90
25112;DHT22;13092;51.996;4.458;2022-12-11T14:47:48;4.40;99.90
25112;DHT22;13092;51.996;4.458;2022-12-11T14:50:20;4.50;99.90
25112;DHT22;13092;51.996;4.458;2022-12-11T14:52:51;4.40;99.90
25112;DHT22;13092;51.996;4.458;2022-12-11T14:55:22;4.40;99.90
25112;DHT22;13092;51.996;4.458;2022-12-11T14:57:56;4.30;99.90
25112;DHT22;13092;51.996;4.458;2022-12-11T15:00:29;4.40;99.90
25112;DHT22;13092;51.996;4.458;2022-12-11T15:02:59;4.40;99.90
25112;DHT22;13092;51.996;4.458;2022-12-11T15:05:28;4.40;99.90
25112;DHT22;13092;51.996;4.458;2022-12-11T15:08:17;4.30;99.90
25112;DHT22;13092;51.996;4.458;2022-12-11T15:11:03;4.30;99.90
25112;DHT22;13092;51.996;4.458;2022-12-11T15:13:35;4.30;99.90
25112;DHT22;13092;51.996;4.458;2022-12-11T15:16:06;4.30;99.90
25112;DHT22;13092;51.996;4.458;2022-12-11T15:18:39;4.20;99.90
25112;DHT22;13092;51.996;4.458;2022-12-11T15:21:10;4.20;99.90
25112;DHT22;13092;51.996;4.458;2022-12-11T15:23:48;4.20;99.90
25112;DHT22;13092;51.996;4.458;2022-12-11T15:26:18;4.10;99.90
25112;DHT22;13092;51.996;4.458;2022-12-11T15:28:46;4.10;99.90
25112;DHT22;13092;51.996;4.458;2022-12-11T15:31:27;4.10;99.90
25112;DHT22;13092;51.996;4.458;2022-12-11T15:33:56;4.10;99.90
25112;DHT22;13092;51.996;4.458;2022-12-11T15:36:29;4.10;99.90
25112;DHT22;13092;51.996;4.458;2022-12-11T15:38:57;4.10;99.90
25112;DHT22;13092;51.996;4.458;2022-12-11T15:41:26;4.10;99.90
25112;DHT22;13092;51.996;4.458;2022-12-11T15:44:00;4.10;99.90
25112;DHT22;13092;51.996;4.458;2022-12-11T15:46:34;4.10;99.90
25112;DHT22;13092;51.996;4.458;2022-12-11T15:49:09;4.00;99.90
25112;DHT22;13092;51.996;4.458;2022-12-11T15:51:39;4.10;99.90
25112;DHT22;13092;51.996;4.458;2022-12-11T15:54:09;4.10;99.90
25112;DHT22;13092;51.996;4.458;2022-12-11T15:56:37;4.20;99.90
25112;DHT22;13092;51.996;4.458;2022-12-11T15:59:05;3.90;99.90
25112;DHT22;13092;51.996;4.458;2022-12-11T16:01:35;3.90;99.90
25112;DHT22;13092;51.996;4.458;2022-12-11T16:04:03;3.90;99.90
25112;DHT22;13092;51.996;4.458;2022-12-11T16:06:32;4.00;99.90
25112;DHT22;13092;51.996;4.458;2022-12-11T16:09:00;3.90;99.90
25112;DHT22;13092;51.996;4.458;2022-12-11T16:11:44;4.00;99.90
25112;DHT22;13092;51.996;4.458;2022-12-11T16:14:13;3.80;99.90
25112;DHT22;13092;51.996;4.458;2022-12-11T16:16:42;4.00;99.90